sensor_id;sensor_type;location;lat;lon;timestamp;P1;durP1;ratioP1;P2;durP2;ratioP2
6111;SDS011;3086;48.802;9.394;2022-07-23T00:01:25;5.73;;;4.47;;
6111;SDS011;3086;48.802;9.394;2022-07-23T00:04:47;5.83;;;4.67;;
6111;SDS011;3086;48.802;9.394;2022-07-23T00:08:09;4.93;;;4.53;;
6111;SDS011;3086;48.802;9.394;2022-07-23T00:11:32;4.83;;;4.43;;
6111;SDS011;3086;48.802;9.394;2022-07-23T00:14:53;5.00;;;4.50;;
6111;SDS011;3086;48.802;9.394;2022-07-23T00:18:15;6.97;;;4.93;;
6111;SDS011;3086;48.802;9.394;2022-07-23T00:21:36;4.93;;;4.47;;
6111;SDS011;3086;48.802;9.394;2022-07-23T00:24:58;5.10;;;4.50;;
6111;SDS011;3086;48.802;9.394;2022-07-23T00:28:21;5.17;;;4.10;;
6111;SDS011;3086;48.802;9.394;2022-07-23T00:31:42;4.33;;;3.93;;
6111;SDS011;3086;48.802;9.394;2022-07-23T00:35:04;4.23;;;3.83;;
6111;SDS011;3086;48.802;9.394;2022-07-23T00:38:26;3.73;;;3.43;;
6111;SDS011;3086;48.802;9.394;2022-07-23T00:41:48;4.23;;;3.57;;
6111;SDS011;3086;48.802;9.394;2022-07-23T00:45:11;4.80;;;3.43;;
6111;SDS011;3086;48.802;9.394;2022-07-23T00:48:33;3.73;;;3.40;;
6111;SDS011;3086;48.802;9.394;2022-07-23T00:51:55;4.03;;;3.60;;
6111;SDS011;3086;48.802;9.394;2022-07-23T00:55:17;3.60;;;3.30;;
6111;SDS011;3086;48.802;9.394;2022-07-23T00:58:39;4.03;;;3.63;;
6111;SDS011;3086;48.802;9.394;2022-07-23T01:02:02;3.60;;;3.30;;
6111;SDS011;3086;48.802;9.394;2022-07-23T01:05:24;4.00;;;3.57;;
6111;SDS011;3086;48.802;9.394;2022-07-23T01:08:46;3.83;;;3.27;;
6111;SDS011;3086;48.802;9.394;2022-07-23T01:12:08;3.50;;;3.20;;
6111;SDS011;3086;48.802;9.394;2022-07-23T01:15:30;3.70;;;3.40;;
6111;SDS011;3086;48.802;9.394;2022-07-23T01:18:53;5.13;;;3.30;;
6111;SDS011;3086;48.802;9.394;2022-07-23T01:22:15;3.50;;;3.20;;
6111;SDS011;3086;48.802;9.394;2022-07-23T01:25:48;3.77;;;3.47;;
6111;SDS011;3086;48.802;9.394;2022-07-23T01:29:10;3.60;;;3.30;;
6111;SDS011;3086;48.802;9.394;2022-07-23T01:32:32;3.50;;;3.20;;
6111;SDS011;3086;48.802;9.394;2022-07-23T01:35:53;3.80;;;3.20;;
6111;SDS011;3086;48.802;9.394;2022-07-23T01:39:15;4.60;;;3.33;;
6111;SDS011;3086;48.802;9.394;2022-07-23T01:42:38;4.80;;;3.50;;
6111;SDS011;3086;48.802;9.394;2022-07-23T01:45:59;3.40;;;3.10;;
6111;SDS011;3086;48.802;9.394;2022-07-23T01:49:21;4.80;;;3.53;;
6111;SDS011;3086;48.802;9.394;2022-07-23T01:52:42;3.50;;;3.20;;
6111;SDS011;3086;48.802;9.394;2022-07-23T01:56:04;3.40;;;3.10;;
6111;SDS011;3086;48.802;9.394;2022-07-23T01:59:27;3.47;;;3.17;;
6111;SDS011;3086;48.802;9.394;2022-07-23T02:02:49;3.70;;;3.40;;
6111;SDS011;3086;48.802;9.394;2022-07-23T02:06:10;4.00;;;3.60;;
6111;SDS011;3086;48.802;9.394;2022-07-23T02:09:32;3.83;;;3.43;;
6111;SDS011;3086;48.802;9.394;2022-07-23T02:12:54;4.10;;;3.73;;
6111;SDS011;3086;48.802;9.394;2022-07-23T02:16:17;3.77;;;3.47;;
6111;SDS011;3086;48.802;9.394;2022-07-23T02:19:39;3.50;;;3.30;;
6111;SDS011;3086;48.802;9.394;2022-07-23T02:23:00;4.40;;;4.10;;
6111;SDS011;3086;48.802;9.394;2022-07-23T02:26:22;4.33;;;3.93;;
6111;SDS011;3086;48.802;9.394;2022-07-23T02:29:43;4.53;;;3.90;;
6111;SDS011;3086;48.802;9.394;2022-07-23T02:33:06;4.50;;;3.80;;
6111;SDS011;3086;48.802;9.394;2022-07-23T02:36:28;4.10;;;3.73;;
6111;SDS011;3086;48.802;9.394;2022-07-23T02:39:50;3.80;;;3.50;;
6111;SDS011;3086;48.802;9.394;2022-07-23T02:43:11;4.57;;;4.17;;
6111;SDS011;3086;48.802;9.394;2022-07-23T02:46:33;4.10;;;3.70;;
6111;SDS011;3086;48.802;9.394;2022-07-23T02:49:58;3.80;;;3.50;;
6111;SDS011;3086;48.802;9.394;2022-07-23T02:53:20;4.23;;;3.83;;
6111;SDS011;3086;48.802;9.394;2022-07-23T02:56:42;4.93;;;3.87;;
6111;SDS011;3086;48.802;9.394;2022-07-23T03:00:04;4.33;;;3.93;;
6111;SDS011;3086;48.802;9.394;2022-07-23T03:03:27;4.30;;;4.00;;
6111;SDS011;3086;48.802;9.394;2022-07-23T03:06:50;4.10;;;3.80;;
6111;SDS011;3086;48.802;9.394;2022-07-23T03:10:12;4.57;;;3.80;;
6111;SDS011;3086;48.802;9.394;2022-07-23T03:13:33;4.17;;;3.77;;
6111;SDS011;3086;48.802;9.394;2022-07-23T03:16:55;4.40;;;4.07;;
6111;SDS011;3086;48.802;9.394;2022-07-23T03:20:16;4.53;;;4.23;;
6111;SDS011;3086;48.802;9.394;2022-07-23T03:23:39;4.07;;;3.50;;
6111;SDS011;3086;48.802;9.394;2022-07-23T03:27:01;4.20;;;3.80;;
6111;SDS011;3086;48.802;9.394;2022-07-23T03:30:22;4.40;;;4.10;;
6111;SDS011;3086;48.802;9.394;2022-07-23T03:33:44;4.43;;;4.03;;
6111;SDS011;3086;48.802;9.394;2022-07-23T03:37:05;5.77;;;3.83;;
6111;SDS011;3086;48.802;9.394;2022-07-23T03:40:28;4.57;;;3.90;;
6111;SDS011;3086;48.802;9.394;2022-07-23T03:43:50;4.73;;;4.00;;
6111;SDS011;3086;48.802;9.394;2022-07-23T03:47:11;4.73;;;4.33;;
6111;SDS011;3086;48.802;9.394;2022-07-23T03:50:33;4.63;;;4.20;;
6111;SDS011;3086;48.802;9.394;2022-07-23T03:53:57;4.73;;;4.20;;
6111;SDS011;3086;48.802;9.394;2022-07-23T03:57:20;5.40;;;4.30;;
6111;SDS011;3086;48.802;9.394;2022-07-23T04:00:41;4.83;;;4.33;;
6111;SDS011;3086;48.802;9.394;2022-07-23T04:04:03;4.87;;;4.40;;
6111;SDS011;3086;48.802;9.394;2022-07-23T04:07:25;5.20;;;4.40;;
6111;SDS011;3086;48.802;9.394;2022-07-23T04:10:46;4.47;;;4.17;;
6111;SDS011;3086;48.802;9.394;2022-07-23T04:14:09;5.57;;;4.50;;
6111;SDS011;3086;48.802;9.394;2022-07-23T04:17:31;4.63;;;4.20;;
6111;SDS011;3086;48.802;9.394;2022-07-23T04:20:52;4.73;;;4.23;;
6111;SDS011;3086;48.802;9.394;2022-07-23T04:24:14;5.10;;;4.60;;
6111;SDS011;3086;48.802;9.394;2022-07-23T04:27:35;4.77;;;4.27;;
6111;SDS011;3086;48.802;9.394;2022-07-23T04:30:58;4.77;;;4.37;;
6111;SDS011;3086;48.802;9.394;2022-07-23T04:34:20;4.70;;;4.30;;
6111;SDS011;3086;48.802;9.394;2022-07-23T04:37:42;6.60;;;4.90;;
6111;SDS011;3086;48.802;9.394;2022-07-23T04:41:03;8.13;;;4.87;;
6111;SDS011;3086;48.802;9.394;2022-07-23T04:44:25;4.57;;;4.10;;
6111;SDS011;3086;48.802;9.394;2022-07-23T04:47:48;4.83;;;4.43;;
6111;SDS011;3086;48.802;9.394;2022-07-23T04:51:10;5.30;;;4.30;;
6111;SDS011;3086;48.802;9.394;2022-07-23T04:54:31;4.60;;;4.30;;
6111;SDS011;3086;48.802;9.394;2022-07-23T04:57:53;5.27;;;4.87;;
6111;SDS011;3086;48.802;9.394;2022-07-23T05:01:14;5.23;;;4.73;;
6111;SDS011;3086;48.802;9.394;2022-07-23T05:04:37;4.90;;;4.50;;
6111;SDS011;3086;48.802;9.394;2022-07-23T05:07:59;5.00;;;4.60;;
6111;SDS011;3086;48.802;9.394;2022-07-23T05:11:20;4.37;;;4.07;;
6111;SDS011;3086;48.802;9.394;2022-07-23T05:14:42;5.00;;;4.57;;
6111;SDS011;3086;48.802;9.394;2022-07-23T05:18:03;4.73;;;4.27;;
6111;SDS011;3086;48.802;9.394;2022-07-23T05:21:26;5.03;;;4.43;;
6111;SDS011;3086;48.802;9.394;2022-07-23T05:24:48;5.20;;;4.57;;
6111;SDS011;3086;48.802;9.394;2022-07-23T05:28:10;5.43;;;4.87;;
6111;SDS011;3086;48.802;9.394;2022-07-23T05:31:32;5.27;;;4.47;;
6111;SDS011;3086;48.802;9.394;2022-07-23T05:34:54;7.70;;;5.10;;
6111;SDS011;3086;48.802;9.394;2022-07-23T05:38:17;5.20;;;4.70;;
6111;SDS011;3086;48.802;9.394;2022-07-23T05:41:38;5.57;;;5.07;;
6111;SDS011;3086;48.802;9.394;2022-07-23T05:45:00;7.93;;;5.30;;
6111;SDS011;3086;48.802;9.394;2022-07-23T05:48:21;5.30;;;4.83;;
6111;SDS011;3086;48.802;9.394;2022-07-23T05:51:43;6.33;;;5.07;;
6111;SDS011;3086;48.802;9.394;2022-07-23T05:55:07;6.23;;;5.60;;
6111;SDS011;3086;48.802;9.394;2022-07-23T05:58:52;6.33;;;5.73;;
6111;SDS011;3086;48.802;9.394;2022-07-23T06:02:14;6.30;;;5.73;;
6111;SDS011;3086;48.802;9.394;2022-07-23T06:05:36;5.63;;;5.13;;
6111;SDS011;3086;48.802;9.394;2022-07-23T06:08:58;6.30;;;5.70;;
6111;SDS011;3086;48.802;9.394;2022-07-23T06:12:20;6.70;;;5.43;;
6111;SDS011;3086;48.802;9.394;2022-07-23T06:15:43;5.90;;;5.40;;
6111;SDS011;3086;48.802;9.394;2022-07-23T06:19:05;6.00;;;5.40;;
6111;SDS011;3086;48.802;9.394;2022-07-23T06:22:26;6.67;;;5.80;;
6111;SDS011;3086;48.802;9.394;2022-07-23T06:25:48;5.47;;;4.97;;
6111;SDS011;3086;48.802;9.394;2022-07-23T06:29:10;5.67;;;5.17;;
6111;SDS011;3086;48.802;9.394;2022-07-23T06:32:33;6.10;;;4.93;;
6111;SDS011;3086;48.802;9.394;2022-07-23T06:35:55;6.53;;;5.37;;
6111;SDS011;3086;48.802;9.394;2022-07-23T06:39:17;6.10;;;5.53;;
6111;SDS011;3086;48.802;9.394;2022-07-23T06:42:38;5.53;;;4.83;;
6111;SDS011;3086;48.802;9.394;2022-07-23T06:46:00;6.67;;;5.20;;
6111;SDS011;3086;48.802;9.394;2022-07-23T06:49:23;5.97;;;5.17;;
6111;SDS011;3086;48.802;9.394;2022-07-23T06:52:45;5.80;;;5.23;;
6111;SDS011;3086;48.802;9.394;2022-07-23T06:56:06;5.83;;;5.00;;
6111;SDS011;3086;48.802;9.394;2022-07-23T06:59:29;5.40;;;4.90;;
6111;SDS011;3086;48.802;9.394;2022-07-23T07:02:50;5.67;;;5.00;;
6111;SDS011;3086;48.802;9.394;2022-07-23T07:06:14;5.27;;;4.87;;
6111;SDS011;3086;48.802;9.394;2022-07-23T07:09:35;4.87;;;4.47;;
6111;SDS011;3086;48.802;9.394;2022-07-23T07:12:57;6.23;;;5.50;;
6111;SDS011;3086;48.802;9.394;2022-07-23T07:16:19;5.57;;;5.03;;
6111;SDS011;3086;48.802;9.394;2022-07-23T07:19:41;6.67;;;4.70;;
6111;SDS011;3086;48.802;9.394;2022-07-23T07:23:04;5.80;;;5.30;;
6111;SDS011;3086;48.802;9.394;2022-07-23T07:26:25;5.83;;;5.23;;
6111;SDS011;3086;48.802;9.394;2022-07-23T07:29:47;5.57;;;5.07;;
6111;SDS011;3086;48.802;9.394;2022-07-23T07:33:09;7.10;;;5.97;;
6111;SDS011;3086;48.802;9.394;2022-07-23T07:36:31;10.43;;;6.40;;
6111;SDS011;3086;48.802;9.394;2022-07-23T07:39:54;7.57;;;5.90;;
6111;SDS011;3086;48.802;9.394;2022-07-23T07:43:15;7.37;;;6.10;;
6111;SDS011;3086;48.802;9.394;2022-07-23T07:46:37;8.43;;;6.13;;
6111;SDS011;3086;48.802;9.394;2022-07-23T07:49:59;9.50;;;6.37;;
6111;SDS011;3086;48.802;9.394;2022-07-23T07:53:21;9.33;;;6.70;;
6111;SDS011;3086;48.802;9.394;2022-07-23T07:56:44;8.77;;;6.50;;
6111;SDS011;3086;48.802;9.394;2022-07-23T08:00:06;7.30;;;6.60;;
6111;SDS011;3086;48.802;9.394;2022-07-23T08:03:29;7.73;;;6.90;;
6111;SDS011;3086;48.802;9.394;2022-07-23T08:06:50;7.20;;;6.50;;
6111;SDS011;3086;48.802;9.394;2022-07-23T08:10:12;6.93;;;6.20;;
6111;SDS011;3086;48.802;9.394;2022-07-23T08:13:35;7.30;;;6.50;;
6111;SDS011;3086;48.802;9.394;2022-07-23T08:16:57;7.80;;;6.17;;
6111;SDS011;3086;48.802;9.394;2022-07-23T08:20:19;10.10;;;6.83;;
6111;SDS011;3086;48.802;9.394;2022-07-23T08:23:42;6.83;;;5.63;;
6111;SDS011;3086;48.802;9.394;2022-07-23T08:27:04;6.90;;;5.87;;
6111;SDS011;3086;48.802;9.394;2022-07-23T08:30:27;6.93;;;6.20;;
6111;SDS011;3086;48.802;9.394;2022-07-23T08:33:49;6.63;;;6.00;;
6111;SDS011;3086;48.802;9.394;2022-07-23T08:37:12;9.77;;;6.40;;
6111;SDS011;3086;48.802;9.394;2022-07-23T08:40:34;7.40;;;6.67;;
6111;SDS011;3086;48.802;9.394;2022-07-23T08:43:57;7.00;;;6.40;;
6111;SDS011;3086;48.802;9.394;2022-07-23T08:47:22;6.47;;;5.90;;
6111;SDS011;3086;48.802;9.394;2022-07-23T08:50:44;6.40;;;5.90;;
6111;SDS011;3086;48.802;9.394;2022-07-23T08:54:07;7.10;;;6.40;;
6111;SDS011;3086;48.802;9.394;2022-07-23T08:57:29;7.30;;;6.50;;
6111;SDS011;3086;48.802;9.394;2022-07-23T09:00:50;8.33;;;6.63;;
6111;SDS011;3086;48.802;9.394;2022-07-23T09:04:14;6.33;;;5.73;;
6111;SDS011;3086;48.802;9.394;2022-07-23T09:07:35;7.00;;;6.40;;
6111;SDS011;3086;48.802;9.394;2022-07-23T09:10:58;5.90;;;5.40;;
6111;SDS011;3086;48.802;9.394;2022-07-23T09:14:35;7.23;;;5.93;;
6111;SDS011;3086;48.802;9.394;2022-07-23T09:17:58;6.13;;;5.63;;
6111;SDS011;3086;48.802;9.394;2022-07-23T09:21:22;6.43;;;5.83;;
6111;SDS011;3086;48.802;9.394;2022-07-23T09:28:28;6.23;;;5.47;;
6111;SDS011;3086;48.802;9.394;2022-07-23T09:31:50;6.13;;;5.43;;
6111;SDS011;3086;48.802;9.394;2022-07-23T09:35:12;5.90;;;5.40;;
6111;SDS011;3086;48.802;9.394;2022-07-23T09:38:36;5.83;;;5.33;;
6111;SDS011;3086;48.802;9.394;2022-07-23T09:42:12;5.10;;;4.70;;
6111;SDS011;3086;48.802;9.394;2022-07-23T09:45:34;6.40;;;5.23;;
6111;SDS011;3086;48.802;9.394;2022-07-23T09:48:59;6.10;;;5.50;;
6111;SDS011;3086;48.802;9.394;2022-07-23T09:52:32;5.30;;;4.80;;
6111;SDS011;3086;48.802;9.394;2022-07-23T09:55:56;6.03;;;5.53;;
6111;SDS011;3086;48.802;9.394;2022-07-23T09:59:21;5.53;;;5.13;;
6111;SDS011;3086;48.802;9.394;2022-07-23T10:02:44;5.77;;;5.27;;
6111;SDS011;3086;48.802;9.394;2022-07-23T10:06:07;5.07;;;4.60;;
6111;SDS011;3086;48.802;9.394;2022-07-23T10:09:30;4.90;;;4.50;;
6111;SDS011;3086;48.802;9.394;2022-07-23T10:12:54;5.43;;;4.80;;
6111;SDS011;3086;48.802;9.394;2022-07-23T10:16:39;5.13;;;4.73;;
6111;SDS011;3086;48.802;9.394;2022-07-23T10:20:04;4.83;;;4.20;;
6111;SDS011;3086;48.802;9.394;2022-07-23T10:23:28;4.90;;;4.37;;
6111;SDS011;3086;48.802;9.394;2022-07-23T10:26:58;5.50;;;4.77;;
6111;SDS011;3086;48.802;9.394;2022-07-23T10:30:30;4.73;;;4.33;;
6111;SDS011;3086;48.802;9.394;2022-07-23T10:33:56;5.10;;;4.27;;
6111;SDS011;3086;48.802;9.394;2022-07-23T10:37:25;4.60;;;4.10;;
6111;SDS011;3086;48.802;9.394;2022-07-23T10:40:54;4.83;;;4.43;;
6111;SDS011;3086;48.802;9.394;2022-07-23T10:44:19;4.80;;;4.40;;
6111;SDS011;3086;48.802;9.394;2022-07-23T10:47:50;4.63;;;4.23;;
6111;SDS011;3086;48.802;9.394;2022-07-23T10:51:12;4.60;;;4.30;;
6111;SDS011;3086;48.802;9.394;2022-07-23T10:54:35;4.30;;;4.00;;
6111;SDS011;3086;48.802;9.394;2022-07-23T10:58:05;4.30;;;4.00;;
6111;SDS011;3086;48.802;9.394;2022-07-23T11:01:37;4.87;;;4.00;;
6111;SDS011;3086;48.802;9.394;2022-07-23T11:05:04;5.27;;;4.60;;
6111;SDS011;3086;48.802;9.394;2022-07-23T11:08:27;4.73;;;4.43;;
6111;SDS011;3086;48.802;9.394;2022-07-23T11:11:49;5.03;;;4.57;;
6111;SDS011;3086;48.802;9.394;2022-07-23T11:15:11;4.67;;;4.27;;
6111;SDS011;3086;48.802;9.394;2022-07-23T11:18:54;4.73;;;4.40;;
6111;SDS011;3086;48.802;9.394;2022-07-23T11:22:49;4.20;;;3.90;;
6111;SDS011;3086;48.802;9.394;2022-07-23T11:30:37;4.87;;;4.40;;
6111;SDS011;3086;48.802;9.394;2022-07-23T11:41:55;4.87;;;4.03;;
6111;SDS011;3086;48.802;9.394;2022-07-23T11:52:54;5.93;;;4.30;;
6111;SDS011;3086;48.802;9.394;2022-07-23T11:56:17;4.70;;;4.30;;
6111;SDS011;3086;48.802;9.394;2022-07-23T11:59:39;4.70;;;4.30;;
6111;SDS011;3086;48.802;9.394;2022-07-23T12:03:01;5.00;;;4.60;;
6111;SDS011;3086;48.802;9.394;2022-07-23T12:06:24;4.90;;;4.50;;
6111;SDS011;3086;48.802;9.394;2022-07-23T12:09:45;5.57;;;4.90;;
6111;SDS011;3086;48.802;9.394;2022-07-23T12:13:09;5.17;;;4.77;;
6111;SDS011;3086;48.802;9.394;2022-07-23T12:16:31;4.90;;;4.50;;
6111;SDS011;3086;48.802;9.394;2022-07-23T12:19:53;5.33;;;4.93;;
6111;SDS011;3086;48.802;9.394;2022-07-23T12:23:16;5.47;;;4.93;;
6111;SDS011;3086;48.802;9.394;2022-07-23T12:26:38;4.90;;;4.50;;
6111;SDS011;3086;48.802;9.394;2022-07-23T12:33:39;4.80;;;4.40;;
6111;SDS011;3086;48.802;9.394;2022-07-23T12:37:01;4.80;;;4.50;;
6111;SDS011;3086;48.802;9.394;2022-07-23T12:40:26;5.03;;;4.63;;
6111;SDS011;3086;48.802;9.394;2022-07-23T12:43:49;4.40;;;4.10;;
6111;SDS011;3086;48.802;9.394;2022-07-23T12:47:12;5.13;;;4.63;;
6111;SDS011;3086;48.802;9.394;2022-07-23T12:50:43;5.07;;;4.57;;
6111;SDS011;3086;48.802;9.394;2022-07-23T12:54:09;4.80;;;4.40;;
6111;SDS011;3086;48.802;9.394;2022-07-23T12:57:44;4.73;;;4.33;;
6111;SDS011;3086;48.802;9.394;2022-07-23T13:01:06;4.73;;;4.33;;
6111;SDS011;3086;48.802;9.394;2022-07-23T13:04:29;5.40;;;4.97;;
6111;SDS011;3086;48.802;9.394;2022-07-23T13:07:51;5.13;;;4.60;;
6111;SDS011;3086;48.802;9.394;2022-07-23T13:11:12;5.43;;;4.93;;
6111;SDS011;3086;48.802;9.394;2022-07-23T13:14:34;5.20;;;4.70;;
6111;SDS011;3086;48.802;9.394;2022-07-23T13:17:55;5.13;;;4.63;;
6111;SDS011;3086;48.802;9.394;2022-07-23T13:21:18;6.53;;;4.50;;
6111;SDS011;3086;48.802;9.394;2022-07-23T13:24:40;5.20;;;4.80;;
6111;SDS011;3086;48.802;9.394;2022-07-23T13:28:01;5.60;;;5.03;;
6111;SDS011;3086;48.802;9.394;2022-07-23T13:31:24;5.40;;;5.00;;
6111;SDS011;3086;48.802;9.394;2022-07-23T13:34:45;5.93;;;5.40;;
6111;SDS011;3086;48.802;9.394;2022-07-23T13:38:08;5.73;;;5.23;;
6111;SDS011;3086;48.802;9.394;2022-07-23T13:41:30;5.63;;;5.10;;
6111;SDS011;3086;48.802;9.394;2022-07-23T13:44:51;6.07;;;5.57;;
6111;SDS011;3086;48.802;9.394;2022-07-23T13:48:13;5.90;;;5.40;;
6111;SDS011;3086;48.802;9.394;2022-07-23T13:51:36;5.53;;;5.10;;
6111;SDS011;3086;48.802;9.394;2022-07-23T13:54:59;5.73;;;4.93;;
6111;SDS011;3086;48.802;9.394;2022-07-23T13:58:21;5.70;;;5.20;;
6111;SDS011;3086;48.802;9.394;2022-07-23T14:01:43;5.50;;;5.00;;
6111;SDS011;3086;48.802;9.394;2022-07-23T14:05:05;5.53;;;5.03;;
6111;SDS011;3086;48.802;9.394;2022-07-23T14:08:28;5.80;;;5.30;;
6111;SDS011;3086;48.802;9.394;2022-07-23T14:11:51;5.83;;;5.23;;
6111;SDS011;3086;48.802;9.394;2022-07-23T14:15:12;6.17;;;5.57;;
6111;SDS011;3086;48.802;9.394;2022-07-23T14:18:34;7.57;;;6.00;;
6111;SDS011;3086;48.802;9.394;2022-07-23T14:21:56;6.07;;;5.40;;
6111;SDS011;3086;48.802;9.394;2022-07-23T14:25:18;5.93;;;5.43;;
6111;SDS011;3086;48.802;9.394;2022-07-23T14:28:41;9.10;;;6.17;;
6111;SDS011;3086;48.802;9.394;2022-07-23T14:32:06;6.50;;;5.80;;
6111;SDS011;3086;48.802;9.394;2022-07-23T14:35:28;7.17;;;6.57;;
6111;SDS011;3086;48.802;9.394;2022-07-23T14:38:49;7.03;;;6.20;;
6111;SDS011;3086;48.802;9.394;2022-07-23T14:42:11;6.50;;;5.80;;
6111;SDS011;3086;48.802;9.394;2022-07-23T14:45:34;6.07;;;5.57;;
6111;SDS011;3086;48.802;9.394;2022-07-23T14:48:56;7.27;;;5.97;;
6111;SDS011;3086;48.802;9.394;2022-07-23T14:52:17;7.03;;;6.30;;
6111;SDS011;3086;48.802;9.394;2022-07-23T14:55:39;7.13;;;5.90;;
6111;SDS011;3086;48.802;9.394;2022-07-23T14:59:00;6.63;;;5.20;;
6111;SDS011;3086;48.802;9.394;2022-07-23T15:02:23;6.10;;;5.60;;
6111;SDS011;3086;48.802;9.394;2022-07-23T15:05:45;5.70;;;5.30;;
6111;SDS011;3086;48.802;9.394;2022-07-23T15:09:06;5.90;;;5.40;;
6111;SDS011;3086;48.802;9.394;2022-07-23T15:12:28;5.37;;;4.87;;
6111;SDS011;3086;48.802;9.394;2022-07-23T15:15:50;6.43;;;5.57;;
6111;SDS011;3086;48.802;9.394;2022-07-23T15:19:13;6.53;;;4.97;;
6111;SDS011;3086;48.802;9.394;2022-07-23T15:22:34;6.13;;;5.53;;
6111;SDS011;3086;48.802;9.394;2022-07-23T15:25:57;6.33;;;5.73;;
6111;SDS011;3086;48.802;9.394;2022-07-23T15:29:18;6.20;;;5.60;;
6111;SDS011;3086;48.802;9.394;2022-07-23T15:32:41;6.67;;;6.07;;
6111;SDS011;3086;48.802;9.394;2022-07-23T15:36:04;6.13;;;5.63;;
6111;SDS011;3086;48.802;9.394;2022-07-23T15:39:26;6.23;;;5.10;;
6111;SDS011;3086;48.802;9.394;2022-07-23T15:42:48;5.77;;;5.30;;
6111;SDS011;3086;48.802;9.394;2022-07-23T15:46:09;5.83;;;5.40;;
6111;SDS011;3086;48.802;9.394;2022-07-23T15:49:31;6.43;;;5.83;;
6111;SDS011;3086;48.802;9.394;2022-07-23T15:52:54;6.93;;;6.23;;
6111;SDS011;3086;48.802;9.394;2022-07-23T15:56:15;6.10;;;5.70;;
6111;SDS011;3086;48.802;9.394;2022-07-23T15:59:37;7.00;;;6.30;;
6111;SDS011;3086;48.802;9.394;2022-07-23T16:02:59;6.03;;;5.53;;
6111;SDS011;3086;48.802;9.394;2022-07-23T16:06:20;7.50;;;5.67;;
6111;SDS011;3086;48.802;9.394;2022-07-23T16:09:44;6.27;;;5.73;;
6111;SDS011;3086;48.802;9.394;2022-07-23T16:13:05;5.93;;;5.40;;
6111;SDS011;3086;48.802;9.394;2022-07-23T16:16:27;6.60;;;6.00;;
6111;SDS011;3086;48.802;9.394;2022-07-23T16:19:48;7.03;;;5.90;;
6111;SDS011;3086;48.802;9.394;2022-07-23T16:23:10;6.00;;;5.50;;
6111;SDS011;3086;48.802;9.394;2022-07-23T16:26:33;6.40;;;5.80;;
6111;SDS011;3086;48.802;9.394;2022-07-23T16:29:54;6.67;;;6.00;;
6111;SDS011;3086;48.802;9.394;2022-07-23T16:33:19;6.73;;;6.20;;
6111;SDS011;3086;48.802;9.394;2022-07-23T16:36:41;6.83;;;6.23;;
6111;SDS011;3086;48.802;9.394;2022-07-23T16:40:03;7.63;;;6.53;;
6111;SDS011;3086;48.802;9.394;2022-07-23T16:43:27;7.93;;;7.13;;
6111;SDS011;3086;48.802;9.394;2022-07-23T16:46:50;7.97;;;6.47;;
6111;SDS011;3086;48.802;9.394;2022-07-23T16:50:12;7.50;;;6.70;;
6111;SDS011;3086;48.802;9.394;2022-07-23T16:53:35;7.30;;;6.67;;
6111;SDS011;3086;48.802;9.394;2022-07-23T16:56:57;7.03;;;6.43;;
6111;SDS011;3086;48.802;9.394;2022-07-23T17:00:20;7.33;;;6.70;;
6111;SDS011;3086;48.802;9.394;2022-07-23T17:03:42;7.10;;;6.30;;
6111;SDS011;3086;48.802;9.394;2022-07-23T17:07:03;7.20;;;6.60;;
6111;SDS011;3086;48.802;9.394;2022-07-23T17:10:25;6.97;;;6.37;;
6111;SDS011;3086;48.802;9.394;2022-07-23T17:13:48;7.97;;;7.17;;
6111;SDS011;3086;48.802;9.394;2022-07-23T17:17:10;6.97;;;6.37;;
6111;SDS011;3086;48.802;9.394;2022-07-23T17:20:32;6.93;;;6.30;;
6111;SDS011;3086;48.802;9.394;2022-07-23T17:23:54;8.03;;;6.93;;
6111;SDS011;3086;48.802;9.394;2022-07-23T17:27:15;7.00;;;6.40;;
6111;SDS011;3086;48.802;9.394;2022-07-23T17:30:38;7.63;;;6.93;;
6111;SDS011;3086;48.802;9.394;2022-07-23T17:34:01;7.43;;;6.83;;
6111;SDS011;3086;48.802;9.394;2022-07-23T17:37:22;7.63;;;6.80;;
6111;SDS011;3086;48.802;9.394;2022-07-23T17:40:44;7.73;;;6.93;;
6111;SDS011;3086;48.802;9.394;2022-07-23T17:44:06;7.30;;;6.70;;
6111;SDS011;3086;48.802;9.394;2022-07-23T17:47:27;7.80;;;7.10;;
6111;SDS011;3086;48.802;9.394;2022-07-23T17:50:50;8.43;;;7.10;;
6111;SDS011;3086;48.802;9.394;2022-07-23T17:54:12;7.60;;;7.00;;
6111;SDS011;3086;48.802;9.394;2022-07-23T17:57:34;8.00;;;7.30;;
6111;SDS011;3086;48.802;9.394;2022-07-23T18:00:55;9.47;;;7.43;;
6111;SDS011;3086;48.802;9.394;2022-07-23T18:04:17;7.67;;;6.93;;
6111;SDS011;3086;48.802;9.394;2022-07-23T18:07:40;7.93;;;7.13;;
6111;SDS011;3086;48.802;9.394;2022-07-23T18:11:02;6.80;;;6.20;;
6111;SDS011;3086;48.802;9.394;2022-07-23T18:14:24;8.23;;;7.13;;
6111;SDS011;3086;48.802;9.394;2022-07-23T18:17:45;8.67;;;7.47;;
6111;SDS011;3086;48.802;9.394;2022-07-23T18:21:07;9.13;;;7.10;;
6111;SDS011;3086;48.802;9.394;2022-07-23T18:24:30;8.17;;;7.00;;
6111;SDS011;3086;48.802;9.394;2022-07-23T18:27:51;8.17;;;6.53;;
6111;SDS011;3086;48.802;9.394;2022-07-23T18:31:13;7.87;;;7.17;;
6111;SDS011;3086;48.802;9.394;2022-07-23T18:34:35;8.03;;;7.23;;
6111;SDS011;3086;48.802;9.394;2022-07-23T18:37:56;8.70;;;7.33;;
6111;SDS011;3086;48.802;9.394;2022-07-23T18:41:19;9.10;;;8.20;;
6111;SDS011;3086;48.802;9.394;2022-07-23T18:44:41;9.43;;;8.47;;
6111;SDS011;3086;48.802;9.394;2022-07-23T18:48:03;9.37;;;7.63;;
6111;SDS011;3086;48.802;9.394;2022-07-23T18:51:25;8.00;;;7.30;;
6111;SDS011;3086;48.802;9.394;2022-07-23T18:54:47;8.60;;;7.70;;
6111;SDS011;3086;48.802;9.394;2022-07-23T18:58:10;7.87;;;7.17;;
6111;SDS011;3086;48.802;9.394;2022-07-23T19:01:31;8.73;;;7.70;;
6111;SDS011;3086;48.802;9.394;2022-07-23T19:04:53;8.57;;;7.77;;
6111;SDS011;3086;48.802;9.394;2022-07-23T19:08:15;9.93;;;8.37;;
6111;SDS011;3086;48.802;9.394;2022-07-23T19:11:36;8.13;;;7.27;;
6111;SDS011;3086;48.802;9.394;2022-07-23T19:14:59;7.60;;;6.90;;
6111;SDS011;3086;48.802;9.394;2022-07-23T19:18:21;7.80;;;7.20;;
6111;SDS011;3086;48.802;9.394;2022-07-23T19:21:42;9.23;;;8.33;;
6111;SDS011;3086;48.802;9.394;2022-07-23T19:25:04;8.83;;;7.97;;
6111;SDS011;3086;48.802;9.394;2022-07-23T19:28:27;9.27;;;8.43;;
6111;SDS011;3086;48.802;9.394;2022-07-23T19:31:50;8.80;;;8.00;;
6111;SDS011;3086;48.802;9.394;2022-07-23T19:35:11;9.03;;;8.23;;
6111;SDS011;3086;48.802;9.394;2022-07-23T19:38:33;9.83;;;8.83;;
6111;SDS011;3086;48.802;9.394;2022-07-23T19:41:54;9.17;;;8.27;;
6111;SDS011;3086;48.802;9.394;2022-07-23T19:45:16;10.30;;;9.20;;
6111;SDS011;3086;48.802;9.394;2022-07-23T19:48:39;9.00;;;8.20;;
6111;SDS011;3086;48.802;9.394;2022-07-23T19:52:02;9.10;;;8.37;;
6111;SDS011;3086;48.802;9.394;2022-07-23T19:55:24;8.50;;;7.73;;
6111;SDS011;3086;48.802;9.394;2022-07-23T19:58:46;10.17;;;7.90;;
6111;SDS011;3086;48.802;9.394;2022-07-23T20:02:08;9.20;;;8.40;;
6111;SDS011;3086;48.802;9.394;2022-07-23T20:05:31;9.63;;;7.80;;
6111;SDS011;3086;48.802;9.394;2022-07-23T20:08:52;8.97;;;8.07;;
6111;SDS011;3086;48.802;9.394;2022-07-23T20:12:14;9.13;;;8.33;;
6111;SDS011;3086;48.802;9.394;2022-07-23T20:15:36;8.37;;;7.67;;
6111;SDS011;3086;48.802;9.394;2022-07-23T20:18:57;10.97;;;8.20;;
6111;SDS011;3086;48.802;9.394;2022-07-23T20:22:21;9.40;;;8.17;;
6111;SDS011;3086;48.802;9.394;2022-07-23T20:25:42;8.77;;;7.97;;
6111;SDS011;3086;48.802;9.394;2022-07-23T20:29:04;9.03;;;8.17;;
6111;SDS011;3086;48.802;9.394;2022-07-23T20:32:25;8.70;;;7.90;;
6111;SDS011;3086;48.802;9.394;2022-07-23T20:35:47;9.27;;;8.43;;
6111;SDS011;3086;48.802;9.394;2022-07-23T20:39:10;8.67;;;7.80;;
6111;SDS011;3086;48.802;9.394;2022-07-23T20:42:32;8.83;;;8.03;;
6111;SDS011;3086;48.802;9.394;2022-07-23T20:45:54;8.97;;;8.17;;
6111;SDS011;3086;48.802;9.394;2022-07-23T20:49:16;8.93;;;8.03;;
6111;SDS011;3086;48.802;9.394;2022-07-23T20:52:38;9.17;;;8.27;;
6111;SDS011;3086;48.802;9.394;2022-07-23T20:56:01;9.63;;;8.73;;
6111;SDS011;3086;48.802;9.394;2022-07-23T20:59:23;10.13;;;8.83;;
6111;SDS011;3086;48.802;9.394;2022-07-23T21:02:44;10.07;;;8.90;;
6111;SDS011;3086;48.802;9.394;2022-07-23T21:06:06;9.93;;;9.03;;
6111;SDS011;3086;48.802;9.394;2022-07-23T21:09:28;9.40;;;8.47;;
6111;SDS011;3086;48.802;9.394;2022-07-23T21:12:51;9.70;;;8.77;;
6111;SDS011;3086;48.802;9.394;2022-07-23T21:16:12;9.23;;;8.47;;
6111;SDS011;3086;48.802;9.394;2022-07-23T21:19:34;9.87;;;8.93;;
6111;SDS011;3086;48.802;9.394;2022-07-23T21:22:56;9.07;;;8.27;;
6111;SDS011;3086;48.802;9.394;2022-07-23T21:26:17;9.77;;;8.87;;